RUK1695 EGSS-LOWL
Flight info
| Callsign | RUK1695 |
|---|---|
| Flight time | 1h 39m |
| Altitude | 39000 |
| Route | CLN M84 KONAN UL607 MATUG DCT BOMBI DCT DETEV DCT DINKU DCT BESNI L605 BIBAG Q104 AKIMA AKIMA2K |
| Aircraft | B738/M-SDE2E3FGHIRWXY/LB1 |
Departure
| Time | 2026-04-25 16:16 |
|---|---|
| Airport | London Stansted Airport (EGSS) |
Arrival
| Time | 2026-04-25 17:55 |
|---|---|
| Airport | Linz-Hörsching Airport (LOWL) |
| Time | Latitude | Longitude | Altitude | Speed | Heading |
|---|---|---|---|---|---|
| 2026-04-25 15:34 | 51.89341 | 0.26033 | 359 ft | 0 kts | 223° |
| 2026-04-25 16:03 | 51.89349 | 0.26045 | 359 ft | 4 kts | 223° |
| 2026-04-25 16:04 | 51.89369 | 0.26076 | 355 ft | 4 kts | 223° |
| 2026-04-25 16:04 | 51.89383 | 0.26097 | 357 ft | 4 kts | 259° |
| 2026-04-25 16:04 | 51.89377 | 0.26126 | 354 ft | 4 kts | 313° |
| 2026-04-25 16:04 | 51.89365 | 0.26147 | 361 ft | 0 kts | 313° |
| 2026-04-25 16:10 | 51.89366 | 0.26145 | 351 ft | 1 kts | 313° |
| 2026-04-25 16:10 | 51.89379 | 0.26123 | 358 ft | 5 kts | 313° |
| 2026-04-25 16:11 | 51.89412 | 0.26064 | 351 ft | 9 kts | 313° |
| 2026-04-25 16:11 | 51.89464 | 0.25975 | 351 ft | 12 kts | 313° |
| 2026-04-25 16:11 | 51.89522 | 0.25877 | 355 ft | 12 kts | 322° |
| 2026-04-25 16:11 | 51.89589 | 0.25804 | 351 ft | 12 kts | 321° |
| 2026-04-25 16:12 | 51.89608 | 0.25700 | 351 ft | 9 kts | 232° |
| 2026-04-25 16:12 | 51.89565 | 0.25633 | 351 ft | 8 kts | 223° |
| 2026-04-25 16:12 | 51.89524 | 0.25571 | 354 ft | 8 kts | 223° |
| 2026-04-25 16:12 | 51.89509 | 0.25550 | 356 ft | 8 kts | 223° |
| 2026-04-25 16:13 | 51.89442 | 0.25448 | 355 ft | 8 kts | 223° |
| 2026-04-25 16:13 | 51.89411 | 0.25382 | 355 ft | 7 kts | 257° |
| 2026-04-25 16:13 | 51.89436 | 0.25313 | 359 ft | 7 kts | 314° |
| 2026-04-25 16:13 | 51.89470 | 0.25254 | 356 ft | 7 kts | 313° |
| 2026-04-25 16:14 | 51.89492 | 0.25186 | 358 ft | 7 kts | 278° |
| 2026-04-25 16:14 | 51.89494 | 0.25110 | 357 ft | 7 kts | 272° |
| 2026-04-25 16:14 | 51.89494 | 0.25032 | 355 ft | 8 kts | 268° |
| 2026-04-25 16:14 | 51.89476 | 0.24943 | 356 ft | 7 kts | 223° |
| 2026-04-25 16:15 | 51.89464 | 0.24926 | 353 ft | 3 kts | 223° |
| 2026-04-25 16:15 | 51.89410 | 0.24842 | 353 ft | 28 kts | 223° |
| 2026-04-25 16:15 | 51.89088 | 0.24361 | 354 ft | 97 kts | 223° |
| 2026-04-25 16:15 | 51.88443 | 0.23397 | 346 ft | 153 kts | 222° |
| 2026-04-25 16:16 | 51.87583 | 0.22110 | 698 ft | 170 kts | 223° |
| 2026-04-25 16:16 | 51.86737 | 0.20825 | 1460 ft | 171 kts | 224° |
| 2026-04-25 16:16 | 51.85826 | 0.19572 | 2123 ft | 177 kts | 208° |
| 2026-04-25 16:16 | 51.84541 | 0.19042 | 2393 ft | 207 kts | 178° |
| 2026-04-25 16:17 | 51.83186 | 0.19698 | 3110 ft | 204 kts | 145° |
| 2026-04-25 16:17 | 51.82166 | 0.21253 | 3686 ft | 201 kts | 124° |
| 2026-04-25 16:17 | 51.81573 | 0.23271 | 3988 ft | 201 kts | 104° |
| 2026-04-25 16:17 | 51.81362 | 0.25535 | 3993 ft | 207 kts | 91° |
| 2026-04-25 16:18 | 51.81425 | 0.27982 | 4024 ft | 231 kts | 84° |
| 2026-04-25 16:18 | 51.81469 | 0.28871 | 4026 ft | 239 kts | 84° |
| 2026-04-25 16:18 | 51.81682 | 0.33449 | 4059 ft | 258 kts | 85° |
| 2026-04-25 16:18 | 51.81811 | 0.36404 | 4590 ft | 269 kts | 85° |
| 2026-04-25 16:19 | 51.81939 | 0.39428 | 5410 ft | 272 kts | 85° |
| 2026-04-25 16:19 | 51.82067 | 0.42485 | 5845 ft | 274 kts | 85° |
| 2026-04-25 16:19 | 51.82195 | 0.45572 | 6529 ft | 278 kts | 85° |
| 2026-04-25 16:20 | 51.82412 | 0.50833 | 7810 ft | 283 kts | 85° |
| 2026-04-25 16:20 | 51.82542 | 0.54032 | 8569 ft | 287 kts | 85° |
| 2026-04-25 16:20 | 51.82848 | 0.61613 | 10341 ft | 295 kts | 85° |
| 2026-04-25 16:21 | 51.82980 | 0.64943 | 11027 ft | 299 kts | 85° |
| 2026-04-25 16:21 | 51.83113 | 0.68318 | 11733 ft | 303 kts | 85° |
| 2026-04-25 16:21 | 51.83247 | 0.71734 | 12455 ft | 307 kts | 85° |
| 2026-04-25 16:21 | 51.83382 | 0.75200 | 13195 ft | 311 kts | 85° |
| 2026-04-25 16:22 | 51.83517 | 0.78714 | 13954 ft | 315 kts | 85° |
| 2026-04-25 16:22 | 51.83652 | 0.82276 | 14638 ft | 319 kts | 85° |
| 2026-04-25 16:22 | 51.83783 | 0.85873 | 15359 ft | 322 kts | 85° |
| 2026-04-25 16:22 | 51.83914 | 0.89510 | 16082 ft | 326 kts | 86° |
| 2026-04-25 16:23 | 51.84045 | 0.93184 | 16798 ft | 329 kts | 86° |
| 2026-04-25 16:23 | 51.84178 | 0.96904 | 17506 ft | 333 kts | 86° |
| 2026-04-25 16:23 | 51.84312 | 1.00666 | 18217 ft | 337 kts | 86° |
| 2026-04-25 16:23 | 51.84445 | 1.04473 | 18860 ft | 341 kts | 86° |
| 2026-04-25 16:24 | 51.84579 | 1.08324 | 19461 ft | 345 kts | 86° |
| 2026-04-25 16:24 | 51.84444 | 1.12203 | 20020 ft | 349 kts | 106° |
| 2026-04-25 16:24 | 51.83387 | 1.15733 | 20511 ft | 355 kts | 128° |
| 2026-04-25 16:24 | 51.81577 | 1.18461 | 20631 ft | 370 kts | 147° |
| 2026-04-25 16:25 | 51.79355 | 1.20836 | 20791 ft | 386 kts | 149° |
| 2026-04-25 16:25 | 51.78616 | 1.21597 | 20865 ft | 391 kts | 149° |
| 2026-04-25 16:25 | 51.74744 | 1.25557 | 21682 ft | 400 kts | 149° |
| 2026-04-25 16:25 | 51.72401 | 1.27992 | 22304 ft | 402 kts | 149° |
| 2026-04-25 16:26 | 51.70051 | 1.30459 | 22888 ft | 405 kts | 149° |
| 2026-04-25 16:26 | 51.67681 | 1.32943 | 23427 ft | 408 kts | 150° |
| 2026-04-25 16:26 | 51.65146 | 1.34986 | 23910 ft | 408 kts | 162° |
| 2026-04-25 16:26 | 51.62418 | 1.36218 | 24390 ft | 407 kts | 172° |
| 2026-04-25 16:27 | 51.59612 | 1.36671 | 24877 ft | 405 kts | 180° |
| 2026-04-25 16:27 | 51.56785 | 1.36787 | 25353 ft | 407 kts | 181° |
| 2026-04-25 16:27 | 51.53945 | 1.36885 | 25822 ft | 409 kts | 181° |
| 2026-04-25 16:27 | 51.51095 | 1.37024 | 26284 ft | 411 kts | 180° |
| 2026-04-25 16:28 | 51.48227 | 1.37193 | 26709 ft | 414 kts | 180° |
| 2026-04-25 16:28 | 51.45357 | 1.37782 | 27080 ft | 422 kts | 165° |
| 2026-04-25 16:28 | 51.42702 | 1.39864 | 27508 ft | 430 kts | 147° |
| 2026-04-25 16:28 | 51.40488 | 1.43208 | 27950 ft | 436 kts | 131° |
| 2026-04-25 16:29 | 51.38628 | 1.47059 | 28408 ft | 438 kts | 129° |
| 2026-04-25 16:29 | 51.36821 | 1.50919 | 28791 ft | 441 kts | 129° |
| 2026-04-25 16:29 | 51.34981 | 1.54856 | 29151 ft | 443 kts | 129° |
| 2026-04-25 16:29 | 51.33119 | 1.58801 | 29528 ft | 446 kts | 130° |
| 2026-04-25 16:30 | 51.31236 | 1.62745 | 29913 ft | 447 kts | 129° |
| 2026-04-25 16:30 | 51.29339 | 1.66684 | 30311 ft | 448 kts | 130° |
| 2026-04-25 16:30 | 51.27428 | 1.70630 | 30592 ft | 450 kts | 130° |
| 2026-04-25 16:30 | 51.25501 | 1.74595 | 30840 ft | 454 kts | 130° |
| 2026-04-25 16:31 | 51.24217 | 1.77234 | 31007 ft | 455 kts | 130° |
| 2026-04-25 16:31 | 51.22242 | 1.81290 | 31272 ft | 458 kts | 130° |
| 2026-04-25 16:31 | 51.20284 | 1.85310 | 31536 ft | 460 kts | 130° |
| 2026-04-25 16:31 | 51.18314 | 1.89348 | 31804 ft | 462 kts | 130° |
| 2026-04-25 16:32 | 51.16331 | 1.93404 | 31953 ft | 467 kts | 130° |
| 2026-04-25 16:32 | 51.14543 | 1.97766 | 32069 ft | 475 kts | 118° |
| 2026-04-25 16:32 | 51.13285 | 2.02630 | 32466 ft | 475 kts | 108° |
| 2026-04-25 16:32 | 51.12551 | 2.07739 | 32974 ft | 473 kts | 97° |
| 2026-04-25 16:33 | 51.12259 | 2.12859 | 33433 ft | 470 kts | 95° |
| 2026-04-25 16:33 | 51.12029 | 2.18043 | 33757 ft | 470 kts | 95° |
| 2026-04-25 16:33 | 51.11799 | 2.23243 | 34036 ft | 471 kts | 95° |
| 2026-04-25 16:33 | 51.11552 | 2.28439 | 34341 ft | 471 kts | 95° |
| 2026-04-25 16:34 | 51.11285 | 2.33617 | 34668 ft | 469 kts | 96° |
| 2026-04-25 16:34 | 51.11004 | 2.38784 | 34952 ft | 468 kts | 96° |
| 2026-04-25 16:34 | 51.10714 | 2.43946 | 35196 ft | 469 kts | 96° |
| 2026-04-25 16:34 | 51.10421 | 2.49113 | 35467 ft | 469 kts | 96° |
| 2026-04-25 16:35 | 51.10127 | 2.54276 | 35746 ft | 468 kts | 96° |
| 2026-04-25 16:35 | 51.09833 | 2.59422 | 36037 ft | 467 kts | 96° |
| 2026-04-25 16:35 | 51.09516 | 2.64556 | 36292 ft | 466 kts | 98° |
| 2026-04-25 16:35 | 51.08869 | 2.69598 | 36518 ft | 465 kts | 107° |
| 2026-04-25 16:36 | 51.07978 | 2.74534 | 36796 ft | 464 kts | 108° |
| 2026-04-25 16:36 | 51.06100 | 2.84339 | 37304 ft | 463 kts | 108° |
| 2026-04-25 16:36 | 51.05167 | 2.89250 | 37452 ft | 465 kts | 108° |
| 2026-04-25 16:37 | 51.04244 | 2.94186 | 37654 ft | 466 kts | 107° |
| 2026-04-25 16:37 | 51.03333 | 2.99115 | 37918 ft | 465 kts | 107° |
| 2026-04-25 16:37 | 51.02429 | 3.04033 | 38190 ft | 463 kts | 107° |
| 2026-04-25 16:37 | 51.01527 | 3.08944 | 38418 ft | 463 kts | 107° |
| 2026-04-25 16:38 | 51.00624 | 3.13849 | 38602 ft | 463 kts | 107° |
| 2026-04-25 16:38 | 50.99718 | 3.18758 | 38812 ft | 463 kts | 107° |
| 2026-04-25 16:38 | 50.98811 | 3.23657 | 38996 ft | 462 kts | 107° |
| 2026-04-25 16:38 | 50.97901 | 3.28554 | 39139 ft | 463 kts | 107° |
| 2026-04-25 16:39 | 50.96987 | 3.33460 | 39179 ft | 465 kts | 107° |
| 2026-04-25 16:39 | 50.95141 | 3.43323 | 39190 ft | 467 kts | 107° |
| 2026-04-25 16:40 | 50.93289 | 3.53174 | 39186 ft | 466 kts | 107° |
| 2026-04-25 16:40 | 50.91434 | 3.62992 | 39185 ft | 464 kts | 108° |
| 2026-04-25 16:41 | 50.89557 | 3.72773 | 39183 ft | 464 kts | 108° |
| 2026-04-25 16:41 | 50.86715 | 3.87395 | 39182 ft | 463 kts | 108° |
| 2026-04-25 16:42 | 50.84815 | 3.97126 | 39182 ft | 463 kts | 108° |
| 2026-04-25 16:42 | 50.82909 | 4.06847 | 39184 ft | 463 kts | 108° |
| 2026-04-25 16:43 | 50.80994 | 4.16561 | 39182 ft | 463 kts | 108° |
| 2026-04-25 16:43 | 50.79071 | 4.26274 | 39177 ft | 463 kts | 108° |
| 2026-04-25 16:44 | 50.77138 | 4.35987 | 39188 ft | 464 kts | 108° |
| 2026-04-25 16:44 | 50.75194 | 4.45707 | 39184 ft | 464 kts | 108° |
| 2026-04-25 16:45 | 50.73242 | 4.55430 | 39186 ft | 465 kts | 108° |
| 2026-04-25 16:45 | 50.71295 | 4.65179 | 39184 ft | 466 kts | 108° |
| 2026-04-25 16:46 | 50.69403 | 4.74970 | 39187 ft | 467 kts | 108° |
| 2026-04-25 16:46 | 50.67825 | 4.83110 | 39180 ft | 467 kts | 108° |
| 2026-04-25 16:47 | 50.65575 | 4.94541 | 39183 ft | 467 kts | 108° |
| 2026-04-25 16:47 | 50.63586 | 5.04275 | 39183 ft | 466 kts | 109° |
| 2026-04-25 16:48 | 50.61581 | 5.13980 | 39182 ft | 466 kts | 108° |
| 2026-04-25 16:48 | 50.59577 | 5.23678 | 39180 ft | 465 kts | 108° |
| 2026-04-25 16:49 | 50.57587 | 5.33287 | 39183 ft | 465 kts | 108° |
| 2026-04-25 16:49 | 50.55577 | 5.42944 | 39181 ft | 465 kts | 108° |
| 2026-04-25 16:50 | 50.53560 | 5.52596 | 39178 ft | 465 kts | 109° |
| 2026-04-25 16:50 | 50.51541 | 5.62244 | 39171 ft | 465 kts | 107° |
| 2026-04-25 16:51 | 50.50153 | 5.72155 | 39169 ft | 465 kts | 100° |
| 2026-04-25 16:51 | 50.49158 | 5.80528 | 39157 ft | 466 kts | 101° |
| 2026-04-25 16:52 | 50.47662 | 5.92111 | 39169 ft | 466 kts | 101° |
| 2026-04-25 16:52 | 50.46343 | 6.02093 | 39144 ft | 467 kts | 101° |
| 2026-04-25 16:53 | 50.44359 | 6.17084 | 39134 ft | 468 kts | 101° |
| 2026-04-25 16:54 | 50.43027 | 6.27097 | 39131 ft | 469 kts | 101° |
| 2026-04-25 16:54 | 50.41684 | 6.37118 | 39118 ft | 470 kts | 101° |
| 2026-04-25 16:55 | 50.40315 | 6.47131 | 39119 ft | 470 kts | 101° |
| 2026-04-25 16:55 | 50.38926 | 6.57153 | 39115 ft | 470 kts | 101° |
| 2026-04-25 16:56 | 50.37532 | 6.67158 | 39128 ft | 470 kts | 101° |
| 2026-04-25 16:56 | 50.36130 | 6.77165 | 39127 ft | 470 kts | 101° |
| 2026-04-25 16:57 | 50.34722 | 6.87160 | 39136 ft | 470 kts | 101° |
| 2026-04-25 16:57 | 50.33306 | 6.97150 | 39144 ft | 470 kts | 101° |
| 2026-04-25 16:58 | 50.31881 | 7.07129 | 39138 ft | 470 kts | 101° |
| 2026-04-25 16:58 | 50.30447 | 7.17101 | 39131 ft | 470 kts | 102° |
| 2026-04-25 16:59 | 50.29007 | 7.27058 | 39132 ft | 469 kts | 102° |
| 2026-04-25 16:59 | 50.27559 | 7.37001 | 39135 ft | 469 kts | 102° |
| 2026-04-25 17:00 | 50.26350 | 7.45257 | 39132 ft | 469 kts | 102° |
| 2026-04-25 17:00 | 50.24639 | 7.56861 | 39130 ft | 469 kts | 102° |
| 2026-04-25 17:01 | 50.23167 | 7.66780 | 39144 ft | 469 kts | 102° |
| 2026-04-25 17:01 | 50.21686 | 7.76697 | 39121 ft | 469 kts | 102° |
| 2026-04-25 17:02 | 50.20198 | 7.86597 | 39133 ft | 469 kts | 102° |
| 2026-04-25 17:02 | 50.18700 | 7.96500 | 39117 ft | 469 kts | 102° |
| 2026-04-25 17:03 | 50.17193 | 8.06399 | 39107 ft | 469 kts | 102° |
| 2026-04-25 17:03 | 50.15678 | 8.16291 | 39105 ft | 469 kts | 102° |
| 2026-04-25 17:04 | 50.14154 | 8.26187 | 39105 ft | 469 kts | 102° |
| 2026-04-25 17:04 | 50.12620 | 8.36081 | 39103 ft | 470 kts | 102° |
| 2026-04-25 17:05 | 50.11077 | 8.45975 | 39092 ft | 470 kts | 102° |
| 2026-04-25 17:05 | 50.08759 | 8.60723 | 39103 ft | 469 kts | 102° |
| 2026-04-25 17:06 | 50.07188 | 8.70655 | 39102 ft | 469 kts | 103° |
| 2026-04-25 17:06 | 50.05539 | 8.80480 | 39096 ft | 470 kts | 109° |
| 2026-04-25 17:07 | 50.02839 | 8.89651 | 39099 ft | 470 kts | 116° |
| 2026-04-25 17:07 | 49.99918 | 8.98731 | 39094 ft | 470 kts | 116° |
| 2026-04-25 17:08 | 49.97013 | 9.07896 | 39096 ft | 470 kts | 116° |
| 2026-04-25 17:08 | 49.94172 | 9.16953 | 39098 ft | 470 kts | 115° |
| 2026-04-25 17:09 | 49.91289 | 9.26135 | 39095 ft | 470 kts | 116° |
| 2026-04-25 17:09 | 49.88434 | 9.35183 | 39091 ft | 470 kts | 116° |
| 2026-04-25 17:10 | 49.85554 | 9.44283 | 39088 ft | 470 kts | 116° |
| 2026-04-25 17:10 | 49.82489 | 9.53236 | 39079 ft | 471 kts | 125° |
| 2026-04-25 17:11 | 49.78118 | 9.60707 | 39096 ft | 469 kts | 138° |
| 2026-04-25 17:11 | 49.73302 | 9.67518 | 39082 ft | 469 kts | 139° |
| 2026-04-25 17:12 | 49.68493 | 9.74348 | 39086 ft | 470 kts | 138° |
| 2026-04-25 17:12 | 49.63703 | 9.81224 | 39077 ft | 470 kts | 138° |
| 2026-04-25 17:13 | 49.60502 | 9.85830 | 39079 ft | 471 kts | 138° |
| 2026-04-25 17:13 | 49.54123 | 9.94986 | 39062 ft | 471 kts | 138° |
| 2026-04-25 17:14 | 49.50135 | 10.00690 | 39072 ft | 471 kts | 138° |
| 2026-04-25 17:14 | 49.45327 | 10.07545 | 39079 ft | 471 kts | 138° |
| 2026-04-25 17:15 | 49.40517 | 10.14386 | 39075 ft | 471 kts | 138° |
| 2026-04-25 17:15 | 49.35704 | 10.21211 | 39081 ft | 471 kts | 138° |
| 2026-04-25 17:16 | 49.30885 | 10.28028 | 39105 ft | 471 kts | 138° |
| 2026-04-25 17:16 | 49.26063 | 10.34831 | 39100 ft | 471 kts | 138° |
| 2026-04-25 17:17 | 49.21271 | 10.41656 | 39117 ft | 471 kts | 137° |
| 2026-04-25 17:17 | 49.16588 | 10.48645 | 39120 ft | 470 kts | 136° |
| 2026-04-25 17:18 | 49.11922 | 10.55645 | 39128 ft | 470 kts | 136° |
| 2026-04-25 17:18 | 49.07242 | 10.62604 | 39131 ft | 470 kts | 136° |
| 2026-04-25 17:19 | 49.02553 | 10.69534 | 39116 ft | 470 kts | 136° |
| 2026-04-25 17:19 | 48.97859 | 10.76445 | 39120 ft | 469 kts | 136° |
| 2026-04-25 17:20 | 48.93166 | 10.83339 | 39102 ft | 469 kts | 136° |
| 2026-04-25 17:20 | 48.88474 | 10.90214 | 39088 ft | 468 kts | 137° |
| 2026-04-25 17:21 | 48.83778 | 10.97075 | 39065 ft | 468 kts | 137° |
| 2026-04-25 17:21 | 48.79053 | 11.03960 | 38427 ft | 475 kts | 137° |
| 2026-04-25 17:22 | 48.76674 | 11.07420 | 37863 ft | 473 kts | 136° |
| 2026-04-25 17:22 | 48.75111 | 11.09692 | 37661 ft | 468 kts | 136° |
| 2026-04-25 17:22 | 48.71987 | 11.14226 | 37128 ft | 462 kts | 136° |
| 2026-04-25 17:22 | 48.69679 | 11.17570 | 36761 ft | 457 kts | 136° |
| 2026-04-25 17:23 | 48.67397 | 11.20889 | 36382 ft | 453 kts | 134° |
| 2026-04-25 17:23 | 48.65417 | 11.24476 | 36040 ft | 448 kts | 123° |
| 2026-04-25 17:23 | 48.63832 | 11.28488 | 35708 ft | 442 kts | 115° |
| 2026-04-25 17:23 | 48.62670 | 11.32753 | 35354 ft | 437 kts | 105° |
| 2026-04-25 17:24 | 48.61763 | 11.37112 | 35010 ft | 433 kts | 105° |
| 2026-04-25 17:24 | 48.60884 | 11.41450 | 34640 ft | 431 kts | 105° |
| 2026-04-25 17:24 | 48.59998 | 11.45762 | 34276 ft | 428 kts | 105° |
| 2026-04-25 17:24 | 48.59098 | 11.50040 | 33888 ft | 426 kts | 105° |
| 2026-04-25 17:25 | 48.58189 | 11.54289 | 33486 ft | 424 kts | 105° |
| 2026-04-25 17:25 | 48.57280 | 11.58508 | 33113 ft | 421 kts | 105° |
| 2026-04-25 17:25 | 48.56475 | 11.62731 | 32787 ft | 415 kts | 101° |
| 2026-04-25 17:25 | 48.55832 | 11.66960 | 32444 ft | 412 kts | 99° |
| 2026-04-25 17:26 | 48.55247 | 11.71170 | 32088 ft | 409 kts | 98° |
| 2026-04-25 17:26 | 48.54676 | 11.75354 | 31745 ft | 406 kts | 98° |
| 2026-04-25 17:26 | 48.54099 | 11.79526 | 31120 ft | 409 kts | 99° |
| 2026-04-25 17:26 | 48.53505 | 11.83724 | 30674 ft | 407 kts | 100° |
| 2026-04-25 17:27 | 48.52903 | 11.87904 | 30241 ft | 407 kts | 100° |
| 2026-04-25 17:27 | 48.52296 | 11.92061 | 29867 ft | 405 kts | 100° |
| 2026-04-25 17:27 | 48.51688 | 11.96191 | 29472 ft | 401 kts | 101° |
| 2026-04-25 17:27 | 48.51280 | 11.98952 | 29237 ft | 398 kts | 101° |
| 2026-04-25 17:28 | 48.50484 | 12.04320 | 28765 ft | 394 kts | 101° |
| 2026-04-25 17:28 | 48.49888 | 12.08329 | 28411 ft | 390 kts | 101° |
| 2026-04-25 17:28 | 48.49296 | 12.12305 | 28066 ft | 387 kts | 101° |
| 2026-04-25 17:28 | 48.48707 | 12.16248 | 27710 ft | 384 kts | 101° |
| 2026-04-25 17:29 | 48.48121 | 12.20168 | 27364 ft | 382 kts | 102° |
| 2026-04-25 17:29 | 48.47537 | 12.24060 | 27016 ft | 380 kts | 102° |
| 2026-04-25 17:29 | 48.46955 | 12.27929 | 26691 ft | 377 kts | 102° |
| 2026-04-25 17:29 | 48.46376 | 12.31772 | 26352 ft | 375 kts | 102° |
| 2026-04-25 17:30 | 48.45798 | 12.35594 | 26015 ft | 373 kts | 102° |
| 2026-04-25 17:30 | 48.45223 | 12.39398 | 25689 ft | 371 kts | 102° |
| 2026-04-25 17:30 | 48.44649 | 12.43180 | 25356 ft | 370 kts | 102° |
| 2026-04-25 17:30 | 48.44075 | 12.46947 | 25036 ft | 368 kts | 103° |
| 2026-04-25 17:31 | 48.43500 | 12.50695 | 24715 ft | 367 kts | 103° |
| 2026-04-25 17:31 | 48.42920 | 12.54427 | 24402 ft | 365 kts | 103° |
| 2026-04-25 17:31 | 48.42341 | 12.58136 | 24084 ft | 364 kts | 103° |
| 2026-04-25 17:31 | 48.41762 | 12.61842 | 23765 ft | 363 kts | 103° |
| 2026-04-25 17:32 | 48.41185 | 12.65535 | 23402 ft | 362 kts | 103° |
| 2026-04-25 17:32 | 48.40607 | 12.69223 | 23028 ft | 361 kts | 103° |
| 2026-04-25 17:32 | 48.40035 | 12.72888 | 22683 ft | 359 kts | 102° |
| 2026-04-25 17:32 | 48.39708 | 12.76599 | 22341 ft | 357 kts | 89° |
| 2026-04-25 17:33 | 48.39778 | 12.80306 | 22064 ft | 353 kts | 86° |
| 2026-04-25 17:33 | 48.39906 | 12.83986 | 21719 ft | 351 kts | 85° |
| 2026-04-25 17:33 | 48.40039 | 12.87599 | 21404 ft | 350 kts | 85° |
| 2026-04-25 17:33 | 48.40166 | 12.91239 | 21084 ft | 348 kts | 85° |
| 2026-04-25 17:34 | 48.40285 | 12.94863 | 20774 ft | 346 kts | 86° |
| 2026-04-25 17:34 | 48.40396 | 12.98468 | 20463 ft | 344 kts | 86° |
| 2026-04-25 17:34 | 48.40503 | 13.02059 | 20163 ft | 343 kts | 86° |
| 2026-04-25 17:34 | 48.40607 | 13.05632 | 19854 ft | 341 kts | 86° |
| 2026-04-25 17:35 | 48.40708 | 13.09197 | 19540 ft | 340 kts | 86° |
| 2026-04-25 17:35 | 48.40807 | 13.12748 | 19216 ft | 340 kts | 86° |
| 2026-04-25 17:35 | 48.40905 | 13.16296 | 18916 ft | 338 kts | 86° |
| 2026-04-25 17:35 | 48.41001 | 13.19824 | 18618 ft | 337 kts | 86° |
| 2026-04-25 17:36 | 48.41097 | 13.23340 | 18316 ft | 336 kts | 86° |
| 2026-04-25 17:36 | 48.41191 | 13.26845 | 17961 ft | 335 kts | 86° |
| 2026-04-25 17:36 | 48.41283 | 13.30338 | 17631 ft | 333 kts | 86° |
| 2026-04-25 17:36 | 48.41347 | 13.33812 | 17319 ft | 331 kts | 88° |
| 2026-04-25 17:37 | 48.41374 | 13.37272 | 17011 ft | 330 kts | 88° |
| 2026-04-25 17:37 | 48.41390 | 13.40712 | 16712 ft | 328 kts | 88° |
| 2026-04-25 17:37 | 48.41404 | 13.44129 | 16411 ft | 326 kts | 88° |
| 2026-04-25 17:37 | 48.41419 | 13.47531 | 16126 ft | 324 kts | 88° |
| 2026-04-25 17:38 | 48.41435 | 13.50920 | 15811 ft | 323 kts | 88° |
| 2026-04-25 17:38 | 48.41446 | 13.53156 | 15616 ft | 322 kts | 88° |
| 2026-04-25 17:38 | 48.41468 | 13.57655 | 15215 ft | 321 kts | 88° |
| 2026-04-25 17:38 | 48.41485 | 13.61007 | 14923 ft | 320 kts | 88° |
| 2026-04-25 17:39 | 48.41500 | 13.64345 | 14634 ft | 319 kts | 88° |
| 2026-04-25 17:39 | 48.41515 | 13.67680 | 14336 ft | 318 kts | 88° |
| 2026-04-25 17:39 | 48.41529 | 13.71006 | 14041 ft | 318 kts | 88° |
| 2026-04-25 17:39 | 48.41542 | 13.74325 | 13736 ft | 317 kts | 88° |
| 2026-04-25 17:40 | 48.41554 | 13.77636 | 13408 ft | 316 kts | 88° |
| 2026-04-25 17:40 | 48.41565 | 13.80941 | 13096 ft | 315 kts | 88° |
| 2026-04-25 17:40 | 48.41575 | 13.84228 | 12787 ft | 313 kts | 88° |
| 2026-04-25 17:40 | 48.41584 | 13.87495 | 12499 ft | 312 kts | 88° |
| 2026-04-25 17:41 | 48.41591 | 13.90748 | 12211 ft | 310 kts | 88° |
| 2026-04-25 17:41 | 48.41604 | 13.93978 | 11921 ft | 307 kts | 88° |
| 2026-04-25 17:41 | 48.41612 | 13.97182 | 11640 ft | 305 kts | 88° |
| 2026-04-25 17:41 | 48.41613 | 14.00367 | 11355 ft | 304 kts | 88° |
| 2026-04-25 17:42 | 48.41615 | 14.03542 | 11075 ft | 303 kts | 88° |
| 2026-04-25 17:42 | 48.41619 | 14.06711 | 10780 ft | 302 kts | 88° |
| 2026-04-25 17:42 | 48.41622 | 14.09868 | 10500 ft | 301 kts | 88° |
| 2026-04-25 17:42 | 48.41624 | 14.13021 | 10206 ft | 300 kts | 88° |
| 2026-04-25 17:43 | 48.41624 | 14.16133 | 10066 ft | 294 kts | 89° |
| 2026-04-25 17:43 | 48.41387 | 14.19171 | 9820 ft | 293 kts | 104° |
| 2026-04-25 17:43 | 48.40797 | 14.22090 | 9565 ft | 291 kts | 107° |
| 2026-04-25 17:43 | 48.40178 | 14.24981 | 9259 ft | 288 kts | 107° |
| 2026-04-25 17:44 | 48.39577 | 14.27813 | 8965 ft | 280 kts | 107° |
| 2026-04-25 17:44 | 48.39001 | 14.30568 | 8708 ft | 272 kts | 107° |
| 2026-04-25 17:44 | 48.38447 | 14.33245 | 8440 ft | 265 kts | 106° |
| 2026-04-25 17:44 | 48.37913 | 14.35856 | 8209 ft | 258 kts | 106° |
| 2026-04-25 17:45 | 48.37391 | 14.38414 | 7975 ft | 254 kts | 106° |
| 2026-04-25 17:45 | 48.37224 | 14.39234 | 7895 ft | 252 kts | 106° |
| 2026-04-25 17:45 | 48.36389 | 14.43337 | 7539 ft | 242 kts | 106° |
| 2026-04-25 17:45 | 48.35901 | 14.45738 | 7295 ft | 237 kts | 106° |
| 2026-04-25 17:46 | 48.35424 | 14.48086 | 7058 ft | 232 kts | 106° |
| 2026-04-25 17:46 | 48.34955 | 14.50388 | 6843 ft | 229 kts | 106° |
| 2026-04-25 17:46 | 48.34491 | 14.52661 | 6615 ft | 226 kts | 106° |
| 2026-04-25 17:46 | 48.34035 | 14.54893 | 6462 ft | 220 kts | 106° |
| 2026-04-25 17:47 | 48.33588 | 14.57080 | 6348 ft | 218 kts | 106° |
| 2026-04-25 17:47 | 48.32890 | 14.59089 | 6223 ft | 220 kts | 139° |
| 2026-04-25 17:47 | 48.31540 | 14.60027 | 6183 ft | 215 kts | 175° |
| 2026-04-25 17:47 | 48.30045 | 14.60206 | 6112 ft | 217 kts | 181° |
| 2026-04-25 17:48 | 48.27035 | 14.60369 | 5904 ft | 215 kts | 186° |
| 2026-04-25 17:48 | 48.25647 | 14.59754 | 5712 ft | 206 kts | 223° |
| 2026-04-25 17:48 | 48.24820 | 14.58093 | 5507 ft | 198 kts | 258° |
| 2026-04-25 17:49 | 48.24724 | 14.56092 | 5321 ft | 190 kts | 269° |
| 2026-04-25 17:49 | 48.24644 | 14.54176 | 5296 ft | 183 kts | 268° |
| 2026-04-25 17:49 | 48.24559 | 14.52269 | 5085 ft | 180 kts | 268° |
| 2026-04-25 17:49 | 48.24484 | 14.50416 | 4859 ft | 177 kts | 268° |
| 2026-04-25 17:50 | 48.24413 | 14.48592 | 4613 ft | 173 kts | 269° |
| 2026-04-25 17:50 | 48.24346 | 14.46819 | 4381 ft | 168 kts | 269° |
| 2026-04-25 17:50 | 48.24281 | 14.45090 | 4161 ft | 163 kts | 269° |
| 2026-04-25 17:50 | 48.24217 | 14.43406 | 3946 ft | 160 kts | 269° |
| 2026-04-25 17:51 | 48.24155 | 14.41750 | 3733 ft | 158 kts | 269° |
| 2026-04-25 17:51 | 48.24094 | 14.40107 | 3523 ft | 157 kts | 268° |
| 2026-04-25 17:51 | 48.24033 | 14.38474 | 3322 ft | 157 kts | 270° |
| 2026-04-25 17:51 | 48.23973 | 14.36850 | 3116 ft | 155 kts | 269° |
| 2026-04-25 17:52 | 48.23915 | 14.35290 | 2923 ft | 146 kts | 269° |
| 2026-04-25 17:52 | 48.23897 | 14.34798 | 2858 ft | 145 kts | 269° |
| 2026-04-25 17:52 | 48.23810 | 14.32410 | 2561 ft | 130 kts | 269° |
| 2026-04-25 17:52 | 48.23761 | 14.31061 | 2379 ft | 130 kts | 269° |
| 2026-04-25 17:53 | 48.23712 | 14.29692 | 2211 ft | 132 kts | 270° |
| 2026-04-25 17:53 | 48.23662 | 14.28330 | 2024 ft | 129 kts | 269° |
| 2026-04-25 17:53 | 48.23614 | 14.26984 | 1862 ft | 133 kts | 268° |
| 2026-04-25 17:53 | 48.23563 | 14.25566 | 1683 ft | 138 kts | 268° |
| 2026-04-25 17:54 | 48.23510 | 14.24099 | 1472 ft | 142 kts | 268° |
| 2026-04-25 17:54 | 48.23462 | 14.22619 | 1273 ft | 141 kts | 266° |
| 2026-04-25 17:54 | 48.23415 | 14.21184 | 1089 ft | 136 kts | 267° |
| 2026-04-25 17:54 | 48.23357 | 14.19791 | 985 ft | 127 kts | 268° |
| 2026-04-25 17:55 | 48.23322 | 14.18761 | 991 ft | 68 kts | 267° |
| 2026-04-25 17:55 | 48.23306 | 14.18299 | 994 ft | 35 kts | 266° |
| 2026-04-25 17:55 | 48.23295 | 14.17985 | 989 ft | 21 kts | 267° |
| 2026-04-25 17:55 | 48.23339 | 14.17882 | 989 ft | 13 kts | 357° |
| 2026-04-25 17:56 | 48.23401 | 14.17904 | 985 ft | 8 kts | 16° |
| 2026-04-25 17:56 | 48.23453 | 14.17926 | 985 ft | 8 kts | 16° |
| 2026-04-25 17:56 | 48.23503 | 14.17947 | 989 ft | 7 kts | 15° |
| 2026-04-25 17:56 | 48.23551 | 14.17966 | 985 ft | 7 kts | 15° |
| 2026-04-25 17:57 | 48.23598 | 14.17984 | 987 ft | 7 kts | 15° |
| 2026-04-25 17:57 | 48.23646 | 14.18004 | 985 ft | 8 kts | 15° |
| 2026-04-25 17:57 | 48.23701 | 14.18045 | 993 ft | 10 kts | 46° |
| 2026-04-25 17:57 | 48.23713 | 14.18074 | 985 ft | 10 kts | 66° |
| 2026-04-25 17:58 | 48.23723 | 14.18241 | 985 ft | 9 kts | 86° |
| 2026-04-25 17:58 | 48.23727 | 14.18338 | 991 ft | 9 kts | 86° |
| 2026-04-25 17:58 | 48.23730 | 14.18433 | 985 ft | 9 kts | 87° |
| 2026-04-25 17:58 | 48.23733 | 14.18525 | 985 ft | 9 kts | 86° |
| 2026-04-25 17:59 | 48.23736 | 14.18615 | 985 ft | 8 kts | 86° |
| 2026-04-25 17:59 | 48.23739 | 14.18702 | 992 ft | 8 kts | 87° |
| 2026-04-25 17:59 | 48.23742 | 14.18787 | 991 ft | 8 kts | 87° |
| 2026-04-25 17:59 | 48.23745 | 14.18882 | 985 ft | 11 kts | 87° |
| 2026-04-25 18:00 | 48.23748 | 14.18965 | 992 ft | 12 kts | 87° |
| 2026-04-25 18:00 | 48.23753 | 14.19135 | 990 ft | 12 kts | 87° |
| 2026-04-25 18:00 | 48.23755 | 14.19217 | 991 ft | 12 kts | 87° |
| 2026-04-25 18:00 | 48.23761 | 14.19378 | 985 ft | 11 kts | 86° |
| 2026-04-25 18:01 | 48.23764 | 14.19456 | 985 ft | 11 kts | 86° |
| 2026-04-25 18:01 | 48.23796 | 14.19568 | 989 ft | 9 kts | 5° |
| 2026-04-25 18:01 | 48.23834 | 14.19550 | 986 ft | 9 kts | 339° |
| 2026-04-25 18:01 | 48.23877 | 14.19521 | 989 ft | 6 kts | 322° |
| 2026-04-25 18:02 | 48.23885 | 14.19466 | 987 ft | 6 kts | 265° |
| 2026-04-25 18:02 | 48.23884 | 14.19438 | 985 ft | 2 kts | 267° |
| 2026-04-25 18:02 | 48.23884 | 14.19431 | 985 ft | 0 kts | 267° |
| 2026-04-25 18:02 | 48.23884 | 14.19429 | 985 ft | 1 kts | 267° |
| 2026-04-25 18:03 | 48.23884 | 14.19416 | 985 ft | 0 kts | 267° |